Weather History for Fort Benning, GA

Change the Weather History Date:

Monday, October 7, 2013

  Actual Average Record
Temperature  
Mean Temperature 70 °F -  
Max Temperature 77 °F 77 °F 87 °F (2007)
Min Temperature 59 °F 55 °F 41 °F (2001)
Cooling Degree Days 4    
Growing Degree Days 20 (Base 50)    
Moisture  
Dew Point 67 °F    
Average Humidity 95    
Maximum Humidity 100    
Minimum Humidity 54    
Precipitation  
Precipitation 0.24 in - - ()
Sea Level Pressure  
Sea Level Pressure 29.86 in    
Wind  
Wind Speed 3 mph (NNW)    
Max Wind Speed 15 mph    
Max Gust Speed 20 mph    
Visibility 8 miles    
Events Rain    
Averages and records for this station are not official NWS values.
T = Trace of Precipitation, MM = Missing Value Source: NWS Daily Summary

Daily Weather History Graph

Daily Weather History Graph

Search for Another Location

Airport:

Trip Planner

Search our weather history database for the weather conditions in past years. The results will help you decide how hot, cold, wet, or windy it might be!

Date:

Astronomy

Oct. 07, 2013 Rise Set
Actual Time 7:38 AM EDT 7:16 PM EDT
Civil Twilight 7:13 AM EDT 7:41 PM EDT
Nautical Twilight 6:45 AM EDT 8:09 PM EDT
Astronomical Twilight 6:16 AM EDT 8:38 PM EDT
Moon 10:16 AM EDT (10/7) 9:12 PM EDT (10/7)
Length of Visible Light 12h 27m
Length of Day
11h 38m
Waxing Crescent, 8% of the Moon is Illuminated
Oct 7
Waxing Crescent
Oct 11
First Quarter
Oct 18
Full
Oct 26
Last Quarter
Nov 3
New

Hourly Weather History & Observations

Time (EDT) Temp. Dew Point Humidity Pressure Visibility Wind Dir Wind Speed Gust Speed Precip Events Conditions
12:08 AM 69.8 °F 69.8 °F 100% 29.86 in 9.0 mi Calm Calm - N/A Rain Light Rain
12:13 AM 69.8 °F 69.8 °F 100% 29.86 in 9.0 mi WSW 1.2 mph - N/A Rain Light Rain
12:18 AM 69.8 °F 69.8 °F 100% 29.86 in 9.0 mi West 1.2 mph - N/A Rain Light Rain
12:23 AM 69.8 °F 69.8 °F 100% 29.86 in 10.0 mi Calm Calm - N/A Rain Light Rain
12:31 AM 69.8 °F 69.8 °F 100% 29.86 in 10.0 mi Calm Calm - N/A   Scattered Clouds
12:36 AM 69.8 °F 69.8 °F 100% 29.86 in 10.0 mi Calm Calm - N/A   Light Drizzle
12:46 AM 69.8 °F 69.8 °F 100% 29.85 in 9.0 mi ESE 2.3 mph - N/A   Light Drizzle
12:49 AM 69.8 °F 69.8 °F 100% 29.85 in 9.0 mi East 1.2 mph - N/A   Mostly Cloudy
12:54 AM 69.8 °F 69.8 °F 100% 29.85 in 10.0 mi Calm Calm - N/A   Mostly Cloudy
12:58 AM 69.6 °F 69.6 °F 100% 29.86 in 10.0 mi Calm Calm - 0.01 in   Mostly Cloudy
1:08 AM 69.8 °F 69.8 °F 100% 29.85 in 8.0 mi Calm Calm - N/A   Mostly Cloudy
1:23 AM 69.8 °F 69.8 °F 100% 29.84 in 2.0 mi South 2.3 mph - N/A   Overcast
1:28 AM 69.8 °F 69.8 °F 100% 29.84 in 1.2 mi South 2.3 mph - N/A   Overcast
1:33 AM 69.8 °F 69.8 °F 100% 29.84 in 1.5 mi South 2.3 mph - N/A   Overcast
1:38 AM 69.8 °F 69.8 °F 100% 29.84 in 1.8 mi South 2.3 mph - N/A   Overcast
1:43 AM 69.8 °F 69.8 °F 100% 29.85 in 2.0 mi SSW 2.3 mph - N/A   Mostly Cloudy
1:58 AM 70.0 °F 70.0 °F 100% 29.86 in 6.0 mi Calm Calm - N/A   Overcast
2:03 AM 69.8 °F 69.8 °F 100% 29.85 in 10.0 mi Calm Calm - N/A   Overcast
2:38 AM 69.8 °F 69.8 °F 100% 29.85 in 9.0 mi SE 2.3 mph - N/A   Mostly Cloudy
2:53 AM 69.8 °F 69.8 °F 100% 29.84 in 10.0 mi SE 3.5 mph - N/A   Scattered Clouds
2:58 AM 70.3 °F 70.3 °F 100% 29.85 in 10.0 mi SE 3.5 mph - N/A   Scattered Clouds
3:33 AM 69.8 °F 69.8 °F 100% 29.82 in 9.0 mi South 2.3 mph - N/A   Mostly Cloudy
3:38 AM 69.8 °F 69.8 °F 100% 29.82 in 10.0 mi South 2.3 mph - N/A   Mostly Cloudy
3:43 AM 69.8 °F 69.8 °F 100% 29.82 in 9.0 mi Calm Calm - N/A   Mostly Cloudy
3:58 AM 69.8 °F 69.8 °F 100% 29.83 in 8.0 mi SSE 1.2 mph - N/A   Overcast
4:08 AM 69.8 °F 69.8 °F 100% 29.81 in 7.0 mi Calm Calm - N/A   Mostly Cloudy
4:18 AM 69.8 °F 69.8 °F 100% 29.81 in 7.0 mi Calm Calm - N/A   Mostly Cloudy
4:28 AM 68.0 °F 68.0 °F 100% 29.81 in 3.0 mi North 1.2 mph - N/A   Mostly Cloudy
4:38 AM 68.0 °F 68.0 °F 100% 29.81 in 9.0 mi NNW 2.3 mph - N/A   Mostly Cloudy
4:48 AM 68.0 °F 68.0 °F 100% 29.81 in 9.0 mi NNW 2.3 mph - N/A   Mostly Cloudy
4:53 AM 69.8 °F 69.8 °F 100% 29.81 in 10.0 mi NNW 2.3 mph - N/A   Overcast
4:58 AM 68.9 °F 68.9 °F 100% 29.81 in 10.0 mi NNW 2.3 mph - N/A   Mostly Cloudy
5:08 AM 69.8 °F 69.8 °F 100% 29.82 in 10.0 mi WNW 3.5 mph - N/A   Overcast
5:09 AM 68.0 °F 68.0 °F 100% 29.82 in 10.0 mi WNW 3.5 mph - N/A   Overcast
5:19 AM 69.8 °F 69.8 °F 100% 29.82 in 10.0 mi WNW 5.8 mph - N/A   Overcast
5:31 AM 69.8 °F 69.8 °F 100% 29.82 in 5.0 mi NNW 2.3 mph - N/A   Overcast
5:34 AM 69.8 °F 69.8 °F 100% 29.83 in 5.0 mi NNW 1.2 mph - N/A   Light Drizzle
5:49 AM 69.8 °F 69.8 °F 100% 29.83 in 5.0 mi North 4.6 mph - N/A Rain Rain
5:54 AM 69.8 °F 69.8 °F 100% 29.83 in 5.0 mi NW 2.3 mph - N/A Rain Heavy Rain
5:55 AM 69.8 °F 69.8 °F 100% 29.83 in 5.0 mi NW 1.2 mph - N/A Rain Heavy Rain
5:58 AM 70.3 °F 70.3 °F 100% 29.83 in 4.0 mi Variable 1.2 mph - 0.09 in Rain Heavy Rain
6:08 AM 69.8 °F 69.8 °F 100% 29.83 in 6.0 mi WNW 3.5 mph - N/A Rain Light Rain
6:13 AM 69.8 °F 69.8 °F 100% 29.83 in 9.0 mi NW 5.8 mph - N/A Rain Light Rain
6:18 AM 69.8 °F 69.8 °F 100% 29.84 in 9.0 mi NW 4.6 mph - N/A Rain Light Rain
6:23 AM 69.8 °F 69.8 °F 100% 29.83 in 7.0 mi NW 8.1 mph - N/A Rain Heavy Rain
6:28 AM 69.8 °F 69.8 °F 100% 29.84 in 5.0 mi NNW 15.0 mph 19.6 mph N/A Rain Heavy Rain
6:38 AM 69.8 °F 69.8 °F 100% 29.84 in 8.0 mi NNW 12.7 mph - N/A Rain Light Rain
6:43 AM 68.0 °F 68.0 °F 100% 29.85 in 10.0 mi NNW 12.7 mph - N/A Rain Light Rain
6:47 AM 66.2 °F 66.2 °F 100% 29.85 in 10.0 mi North 12.7 mph - N/A   Overcast
6:57 AM 66.2 °F 66.2 °F 100% 29.86 in 10.0 mi NNW 9.2 mph - N/A   Overcast
6:58 AM 66.2 °F 66.2 °F 100% 29.87 in 10.0 mi NNW 9.2 mph - 0.09 in   Overcast
7:08 AM 66.2 °F 64.4 °F 94% 29.85 in 10.0 mi North 8.1 mph - N/A   Overcast
7:13 AM 64.4 °F 64.4 °F 100% 29.85 in 10.0 mi North 10.4 mph - N/A   Overcast
7:18 AM 64.4 °F 64.4 °F 100% 29.85 in 10.0 mi North 10.4 mph - N/A   Overcast
7:38 AM 64.4 °F 64.4 °F 100% 29.86 in 10.0 mi North 9.2 mph - N/A   Overcast
7:58 AM 63.7 °F 63.5 °F 99% 29.87 in 10.0 mi NNW 8.1 mph - N/A   Overcast
8:03 AM 64.4 °F 64.4 °F 100% 29.87 in 10.0 mi NNW 8.1 mph - N/A   Overcast
8:27 AM 64.4 °F 64.4 °F 100% 29.87 in 10.0 mi NNW 9.2 mph - N/A Rain Light Rain
8:47 AM 64.4 °F 62.6 °F 94% 29.88 in 10.0 mi NNW 8.1 mph - N/A   Light Drizzle
8:58 AM 63.7 °F 63.3 °F 99% 29.89 in 10.0 mi NNW 4.6 mph - 0.00 in   Light Drizzle
9:03 AM 64.4 °F 62.6 °F 94% 29.88 in 10.0 mi NW 5.8 mph - N/A Rain Light Rain
9:13 AM 64.4 °F 62.6 °F 94% 29.88 in 5.0 mi NW 6.9 mph - N/A Rain Rain
9:18 AM 62.6 °F 62.6 °F 100% 29.88 in 4.0 mi NW 9.2 mph - N/A Rain Light Rain
9:23 AM 62.6 °F 62.6 °F 100% 29.88 in 6.0 mi NNW 9.2 mph - N/A Rain Rain
9:28 AM 62.6 °F 62.6 °F 100% 29.88 in 8.0 mi NW 8.1 mph - N/A Rain Light Rain
9:38 AM 62.6 °F 62.6 °F 100% 29.88 in 10.0 mi NNW 9.2 mph - N/A Rain Light Rain
9:43 AM 62.6 °F 62.6 °F 100% 29.89 in 7.0 mi NNW 5.8 mph - N/A Rain Light Rain
9:58 AM 63.5 °F 63.1 °F 99% 29.90 in 10.0 mi North 4.6 mph - 0.04 in   Light Drizzle
10:00 AM 64.4 °F 62.6 °F 94% 29.89 in 10.0 mi North 4.6 mph - N/A   Overcast
10:58 AM 66.0 °F 65.1 °F 97% 29.90 in 10.0 mi NNW 4.6 mph - 0.00 in   Overcast
11:28 AM 68.0 °F 66.2 °F 94% 29.89 in 10.0 mi NNW 5.8 mph - N/A   Mostly Cloudy
11:34 AM 68.0 °F 64.4 °F 88% 29.89 in 10.0 mi North 5.8 mph - N/A   Light Drizzle
11:44 AM 68.0 °F 66.2 °F 94% 29.89 in 10.0 mi North 5.8 mph - N/A Rain Light Rain
11:58 AM 67.5 °F 66.0 °F 95% 29.90 in 10.0 mi North 5.8 mph - 0.00 in Rain Light Rain
12:13 PM 68.0 °F 66.2 °F 94% 29.88 in 10.0 mi NNW 8.1 mph - N/A   Light Drizzle
12:22 PM 68.0 °F 66.2 °F 94% 29.89 in 10.0 mi North 5.8 mph - N/A   Mostly Cloudy
12:27 PM 68.0 °F 66.2 °F 94% 29.89 in 10.0 mi NNW 6.9 mph - N/A   Mostly Cloudy
12:57 PM 71.6 °F 68.0 °F 88% 29.88 in 10.0 mi Variable 5.8 mph - N/A   Mostly Cloudy
12:58 PM 71.2 °F 67.3 °F 87% 29.88 in 10.0 mi NNW 5.8 mph - 0.00 in   Mostly Cloudy
1:33 PM 71.6 °F 66.2 °F 83% 29.88 in 10.0 mi North 5.8 mph - N/A   Overcast
1:48 PM 73.4 °F 66.2 °F 78% 29.87 in 10.0 mi North 6.9 mph - N/A   Overcast
1:58 PM 73.8 °F 66.0 °F 77% 29.88 in 10.0 mi NNW 8.1 mph - 0.01 in   Overcast
2:58 PM 74.3 °F 65.1 °F 73% 29.87 in 10.0 mi NW 11.5 mph - N/A   Overcast
3:03 PM 73.4 °F 64.4 °F 73% 29.86 in 10.0 mi NNW 10.4 mph - N/A   Overcast
3:18 PM 73.4 °F 64.4 °F 73% 29.85 in 10.0 mi NNW 11.5 mph - N/A   Overcast
3:58 PM 74.3 °F 64.0 °F 70% 29.85 in 10.0 mi Variable 5.8 mph - N/A   Overcast
4:58 PM 75.7 °F 63.9 °F 66% 29.85 in 10.0 mi NNW 9.2 mph - N/A   Mostly Cloudy
5:58 PM 77.2 °F 59.5 °F 54% 29.86 in 10.0 mi North 10.4 mph - N/A   Mostly Cloudy
6:58 PM 73.2 °F 57.4 °F 57% 29.88 in 10.0 mi NNW 8.1 mph - N/A   Scattered Clouds
7:58 PM 63.9 °F 58.6 °F 83% 29.91 in 10.0 mi NW 6.9 mph - N/A   Clear
8:58 PM 66.7 °F 58.1 °F 74% 29.93 in 10.0 mi NW 5.8 mph - N/A   Partly Cloudy
9:58 PM 62.4 °F 56.5 °F 81% 29.95 in 10.0 mi NNW 4.6 mph - N/A   Clear
10:58 PM 64.9 °F 54.5 °F 69% 29.96 in 10.0 mi NNW 5.8 mph - N/A   Clear
11:58 PM 59.4 °F 54.7 °F 84% 29.95 in 10.0 mi NW 6.9 mph - N/A   Mostly Cloudy